PWSweather.com
Personal Weather Stations
Station Observations
KNEOMA130
Stonybrook South, Omaha, NE 68138

Stonybrook SouthOmaha, NE 68138

Lat: 41.190485, Lon: -96.13102900000001

Elevation: 1142

Station Type: Davis VP2

http://chappelleweather.com

Latest ConditionsUpdated 1:41:48 AM CST Thursday, Jan 18, 2018
Currently Today's Max Today's Min Today's Average
Temperature 18.4°F-7.6°C 19.7°F-6.8°C 17.9°F-7.8°C 18.7°F-7.4°C
Dew Point 12.7°F-10.7°C 13.7°F-10.2°C 12.0°F-11.1°C 12.8°F-10.7°C
Winds 4.0 mph S6.4 kmh S 6.0 mph S9.7 kmh S - 2.7 mph 4.3 kmh
Wind Gusts 5.0 mph8.0 kmh 6.0 mph9.7 kmh - -
Humidity 78% 78% 77% 77%
Pressure 30.21 in1023.0 mb 30.25 in1024.4 mb 30.21 in1023.0 mb -
Hour Temp Dew Point Humidity Winds Wind Gusts Pressure Precip Precip Rate Daily Precip Total
01:41 AM 18.4°F-7.6°C 12.7°F-10.7°C 78% 4.0 mph S6.4 kmh S 5.0 mph8.0 kmh 30.21 in1023.0 mb 0.00 in0.0 mm 0.00 in0.0 mm 0.00 in0.0 mm
01:40 AM 18.3°F-7.6°C 12.6°F-10.8°C 78% 4.0 mph S6.4 kmh S 5.0 mph8.0 kmh 30.21 in1023.0 mb 0.00 in0.0 mm 0.00 in0.0 mm 0.00 in0.0 mm
01:39 AM 18.3°F-7.6°C 12.6°F-10.8°C 78% 3.0 mph S4.8 kmh S 5.0 mph8.0 kmh 30.21 in1023.0 mb 0.00 in0.0 mm 0.00 in0.0 mm 0.00 in0.0 mm
01:38 AM 18.2°F-7.7°C 12.5°F-10.8°C 78% 3.0 mph S4.8 kmh S 5.0 mph8.0 kmh 30.21 in1023.0 mb 0.00 in0.0 mm 0.00 in0.0 mm 0.00 in0.0 mm
01:37 AM 18.2°F-7.7°C 12.5°F-10.8°C 78% 3.0 mph S4.8 kmh S 5.0 mph8.0 kmh 30.21 in1023.0 mb 0.00 in0.0 mm 0.00 in0.0 mm 0.00 in0.0 mm
01:36 AM 18.2°F-7.7°C 12.5°F-10.8°C 78% 1.0 mph S1.6 kmh S 5.0 mph8.0 kmh 30.21 in1023.0 mb 0.00 in0.0 mm 0.00 in0.0 mm 0.00 in0.0 mm
01:35 AM 18.2°F-7.7°C 12.5°F-10.8°C 78% 3.0 mph S4.8 kmh S 5.0 mph8.0 kmh 30.21 in1023.0 mb 0.00 in0.0 mm 0.00 in0.0 mm 0.00 in0.0 mm
01:34 AM 18.2°F-7.7°C 12.5°F-10.8°C 78% 5.0 mph S8.0 kmh S 5.0 mph8.0 kmh 30.21 in1023.0 mb 0.00 in0.0 mm 0.00 in0.0 mm 0.00 in0.0 mm
01:33 AM 18.1°F-7.7°C 12.4°F-10.9°C 78% 2.0 mph S3.2 kmh S 5.0 mph8.0 kmh 30.21 in1023.0 mb 0.00 in0.0 mm 0.00 in0.0 mm 0.00 in0.0 mm
01:32 AM 18.1°F-7.7°C 12.4°F-10.9°C 78% 2.0 mph S3.2 kmh S 5.0 mph8.0 kmh 30.21 in1023.0 mb 0.00 in0.0 mm 0.00 in0.0 mm 0.00 in0.0 mm
01:31 AM 18.1°F-7.7°C 12.4°F-10.9°C 78% 2.0 mph S3.2 kmh S 5.0 mph8.0 kmh 30.21 in1023.0 mb 0.00 in0.0 mm 0.00 in0.0 mm 0.00 in0.0 mm
01:30 AM 18.1°F-7.7°C 12.4°F-10.9°C 78% 3.0 mph S4.8 kmh S 5.0 mph8.0 kmh 30.21 in1023.0 mb 0.00 in0.0 mm 0.00 in0.0 mm 0.00 in0.0 mm
01:29 AM 18.0°F-7.8°C 12.3°F-10.9°C 78% 2.0 mph S3.2 kmh S 5.0 mph8.0 kmh 30.21 in1023.0 mb 0.00 in0.0 mm 0.00 in0.0 mm 0.00 in0.0 mm
01:28 AM 18.0°F-7.8°C 12.3°F-10.9°C 78% 3.0 mph S4.8 kmh S 5.0 mph8.0 kmh 30.21 in1023.0 mb 0.00 in0.0 mm 0.00 in0.0 mm 0.00 in0.0 mm
01:27 AM 18.0°F-7.8°C 12.3°F-10.9°C 78% 2.0 mph S3.2 kmh S 5.0 mph8.0 kmh 30.21 in1023.0 mb 0.00 in0.0 mm 0.00 in0.0 mm 0.00 in0.0 mm
01:26 AM 18.0°F-7.8°C 12.3°F-10.9°C 78% 3.0 mph S4.8 kmh S 5.0 mph8.0 kmh 30.21 in1023.0 mb 0.00 in0.0 mm 0.00 in0.0 mm 0.00 in0.0 mm
01:25 AM 17.9°F-7.8°C 12.2°F-11.0°C 78% 3.0 mph S4.8 kmh S 5.0 mph8.0 kmh 30.21 in1023.0 mb 0.00 in0.0 mm 0.00 in0.0 mm 0.00 in0.0 mm
01:24 AM 17.9°F-7.8°C 12.2°F-11.0°C 78% 3.0 mph S4.8 kmh S 5.0 mph8.0 kmh 30.21 in1023.0 mb 0.00 in0.0 mm 0.00 in0.0 mm 0.00 in0.0 mm
01:23 AM 17.9°F-7.8°C 12.2°F-11.0°C 78% 3.0 mph S4.8 kmh S 5.0 mph8.0 kmh 30.21 in1023.0 mb 0.00 in0.0 mm 0.00 in0.0 mm 0.00 in0.0 mm
01:22 AM 18.0°F-7.8°C 12.3°F-10.9°C 78% 4.0 mph S6.4 kmh S 5.0 mph8.0 kmh 30.21 in1023.0 mb 0.00 in0.0 mm 0.00 in0.0 mm 0.00 in0.0 mm
01:21 AM 18.0°F-7.8°C 12.3°F-10.9°C 78% 2.0 mph S3.2 kmh S 5.0 mph8.0 kmh 30.21 in1023.0 mb 0.00 in0.0 mm 0.00 in0.0 mm 0.00 in0.0 mm
01:20 AM 18.0°F-7.8°C 12.3°F-10.9°C 78% 3.0 mph S4.8 kmh S 5.0 mph8.0 kmh 30.21 in1023.0 mb 0.00 in0.0 mm 0.00 in0.0 mm 0.00 in0.0 mm
01:19 AM 18.0°F-7.8°C 12.3°F-10.9°C 78% 3.0 mph S4.8 kmh S 5.0 mph8.0 kmh 30.22 in1023.4 mb 0.00 in0.0 mm 0.00 in0.0 mm 0.00 in0.0 mm
01:18 AM 18.0°F-7.8°C 12.3°F-10.9°C 78% 4.0 mph S6.4 kmh S 4.0 mph6.4 kmh 30.22 in1023.4 mb 0.00 in0.0 mm 0.00 in0.0 mm 0.00 in0.0 mm
01:17 AM 18.0°F-7.8°C 12.3°F-10.9°C 78% 3.0 mph S4.8 kmh S 4.0 mph6.4 kmh 30.22 in1023.4 mb 0.00 in0.0 mm 0.00 in0.0 mm 0.00 in0.0 mm
01:16 AM 18.0°F-7.8°C 12.3°F-10.9°C 78% 2.0 mph S3.2 kmh S 4.0 mph6.4 kmh 30.22 in1023.4 mb 0.00 in0.0 mm 0.00 in0.0 mm 0.00 in0.0 mm
01:15 AM 18.0°F-7.8°C 12.3°F-10.9°C 78% 3.0 mph S4.8 kmh S 4.0 mph6.4 kmh 30.22 in1023.4 mb 0.00 in0.0 mm 0.00 in0.0 mm 0.00 in0.0 mm
01:14 AM 18.0°F-7.8°C 12.3°F-10.9°C 78% 3.0 mph S4.8 kmh S 4.0 mph6.4 kmh 30.22 in1023.4 mb 0.00 in0.0 mm 0.00 in0.0 mm 0.00 in0.0 mm
01:13 AM 18.0°F-7.8°C 12.0°F-11.1°C 77% 2.0 mph S3.2 kmh S 4.0 mph6.4 kmh 30.22 in1023.4 mb 0.00 in0.0 mm 0.00 in0.0 mm 0.00 in0.0 mm
01:12 AM 18.0°F-7.8°C 12.0°F-11.1°C 77% 4.0 mph S6.4 kmh S 4.0 mph6.4 kmh 30.22 in1023.4 mb 0.00 in0.0 mm 0.00 in0.0 mm 0.00 in0.0 mm
01:11 AM 18.0°F-7.8°C 12.0°F-11.1°C 77% 3.0 mph S4.8 kmh S 4.0 mph6.4 kmh 30.22 in1023.4 mb 0.00 in0.0 mm 0.00 in0.0 mm 0.00 in0.0 mm
01:10 AM 18.0°F-7.8°C 12.0°F-11.1°C 77% 3.0 mph S4.8 kmh S 4.0 mph6.4 kmh 30.22 in1023.4 mb 0.00 in0.0 mm 0.00 in0.0 mm 0.00 in0.0 mm
01:09 AM 18.1°F-7.7°C 12.1°F-11.1°C 77% 2.0 mph S3.2 kmh S 4.0 mph6.4 kmh 30.23 in1023.7 mb 0.00 in0.0 mm 0.00 in0.0 mm 0.00 in0.0 mm
01:08 AM 18.1°F-7.7°C 12.1°F-11.1°C 77% 2.0 mph S3.2 kmh S 4.0 mph6.4 kmh 30.23 in1023.7 mb 0.00 in0.0 mm 0.00 in0.0 mm 0.00 in0.0 mm
01:07 AM 18.2°F-7.7°C 12.2°F-11.0°C 77% 3.0 mph S4.8 kmh S 4.0 mph6.4 kmh 30.23 in1023.7 mb 0.00 in0.0 mm 0.00 in0.0 mm 0.00 in0.0 mm
01:06 AM 18.2°F-7.7°C 12.2°F-11.0°C 77% 2.0 mph S3.2 kmh S 3.0 mph4.8 kmh 30.23 in1023.7 mb 0.00 in0.0 mm 0.00 in0.0 mm 0.00 in0.0 mm
01:05 AM 18.2°F-7.7°C 12.2°F-11.0°C 77% 2.0 mph S3.2 kmh S 3.0 mph4.8 kmh 30.23 in1023.7 mb 0.00 in0.0 mm 0.00 in0.0 mm 0.00 in0.0 mm
01:04 AM 18.3°F-7.6°C 12.3°F-10.9°C 77% 1.0 mph S1.6 kmh S 3.0 mph4.8 kmh 30.23 in1023.7 mb 0.00 in0.0 mm 0.00 in0.0 mm 0.00 in0.0 mm
01:03 AM 18.3°F-7.6°C 12.3°F-10.9°C 77% 2.0 mph S3.2 kmh S 4.0 mph6.4 kmh 30.23 in1023.7 mb 0.00 in0.0 mm 0.00 in0.0 mm 0.00 in0.0 mm
01:02 AM 18.3°F-7.6°C 12.3°F-10.9°C 77% 2.0 mph S3.2 kmh S 4.0 mph6.4 kmh 30.23 in1023.7 mb 0.00 in0.0 mm 0.00 in0.0 mm 0.00 in0.0 mm
01:01 AM 18.3°F-7.6°C 12.3°F-10.9°C 77% 1.0 mph S1.6 kmh S 4.0 mph6.4 kmh 30.23 in1023.7 mb 0.00 in0.0 mm 0.00 in0.0 mm 0.00 in0.0 mm
01:00 AM 18.4°F-7.6°C 12.4°F-10.9°C 77% 1.0 mph S1.6 kmh S 4.0 mph6.4 kmh 30.23 in1023.7 mb 0.00 in0.0 mm 0.00 in0.0 mm 0.00 in0.0 mm
12:59 AM 18.4°F-7.6°C 12.4°F-10.9°C 77% 2.0 mph S3.2 kmh S 4.0 mph6.4 kmh 30.23 in1023.7 mb 0.00 in0.0 mm 0.00 in0.0 mm 0.00 in0.0 mm
12:58 AM 18.4°F-7.6°C 12.4°F-10.9°C 77% 3.0 mph S4.8 kmh S 4.0 mph6.4 kmh 30.23 in1023.7 mb 0.00 in0.0 mm 0.00 in0.0 mm 0.00 in0.0 mm
12:57 AM 18.5°F-7.5°C 12.5°F-10.8°C 77% 3.0 mph S4.8 kmh S 4.0 mph6.4 kmh 30.23 in1023.7 mb 0.00 in0.0 mm 0.00 in0.0 mm 0.00 in0.0 mm
12:56 AM 18.5°F-7.5°C 12.5°F-10.8°C 77% 1.0 mph S1.6 kmh S 4.0 mph6.4 kmh 30.23 in1023.7 mb 0.00 in0.0 mm 0.00 in0.0 mm 0.00 in0.0 mm
12:55 AM 18.5°F-7.5°C 12.5°F-10.8°C 77% 2.0 mph S3.2 kmh S 4.0 mph6.4 kmh 30.23 in1023.7 mb 0.00 in0.0 mm 0.00 in0.0 mm 0.00 in0.0 mm
12:54 AM 18.6°F-7.4°C 12.6°F-10.8°C 77% 2.0 mph S3.2 kmh S 4.0 mph6.4 kmh 30.23 in1023.7 mb 0.00 in0.0 mm 0.00 in0.0 mm 0.00 in0.0 mm
12:53 AM 18.6°F-7.4°C 12.6°F-10.8°C 77% 1.0 mph S1.6 kmh S 4.0 mph6.4 kmh 30.23 in1023.7 mb 0.00 in0.0 mm 0.00 in0.0 mm 0.00 in0.0 mm
12:52 AM 18.7°F-7.4°C 12.7°F-10.7°C 77% 3.0 mph S4.8 kmh S 4.0 mph6.4 kmh 30.23 in1023.7 mb 0.00 in0.0 mm 0.00 in0.0 mm 0.00 in0.0 mm
12:51 AM 18.7°F-7.4°C 12.7°F-10.7°C 77% 2.0 mph S3.2 kmh S 4.0 mph6.4 kmh 30.23 in1023.7 mb 0.00 in0.0 mm 0.00 in0.0 mm 0.00 in0.0 mm
12:50 AM 18.8°F-7.3°C 12.8°F-10.7°C 77% 2.0 mph S3.2 kmh S 4.0 mph6.4 kmh 30.23 in1023.7 mb 0.00 in0.0 mm 0.00 in0.0 mm 0.00 in0.0 mm
12:49 AM 18.8°F-7.3°C 12.8°F-10.7°C 77% 1.0 mph S1.6 kmh S 4.0 mph6.4 kmh 30.23 in1023.7 mb 0.00 in0.0 mm 0.00 in0.0 mm 0.00 in0.0 mm
12:48 AM 18.8°F-7.3°C 12.8°F-10.7°C 77% Calm Calm 5.0 mph8.0 kmh 30.23 in1023.7 mb 0.00 in0.0 mm 0.00 in0.0 mm 0.00 in0.0 mm
12:47 AM 18.9°F-7.3°C 12.9°F-10.6°C 77% 2.0 mph S3.2 kmh S 5.0 mph8.0 kmh 30.23 in1023.7 mb 0.00 in0.0 mm 0.00 in0.0 mm 0.00 in0.0 mm
12:46 AM 18.9°F-7.3°C 12.9°F-10.6°C 77% 2.0 mph S3.2 kmh S 5.0 mph8.0 kmh 30.23 in1023.7 mb 0.00 in0.0 mm 0.00 in0.0 mm 0.00 in0.0 mm
12:45 AM 18.9°F-7.3°C 12.9°F-10.6°C 77% 2.0 mph S3.2 kmh S 5.0 mph8.0 kmh 30.23 in1023.7 mb 0.00 in0.0 mm 0.00 in0.0 mm 0.00 in0.0 mm
12:44 AM 18.9°F-7.3°C 12.9°F-10.6°C 77% 1.0 mph S1.6 kmh S 5.0 mph8.0 kmh 30.23 in1023.7 mb 0.00 in0.0 mm 0.00 in0.0 mm 0.00 in0.0 mm
12:43 AM 19.0°F-7.2°C 13.0°F-10.6°C 77% 2.0 mph S3.2 kmh S 5.0 mph8.0 kmh 30.23 in1023.7 mb 0.00 in0.0 mm 0.00 in0.0 mm 0.00 in0.0 mm
12:42 AM 19.0°F-7.2°C 13.0°F-10.6°C 77% 1.0 mph S1.6 kmh S 5.0 mph8.0 kmh 30.23 in1023.7 mb 0.00 in0.0 mm 0.00 in0.0 mm 0.00 in0.0 mm
12:41 AM 19.0°F-7.2°C 13.0°F-10.6°C 77% 2.0 mph S3.2 kmh S 5.0 mph8.0 kmh 30.23 in1023.7 mb 0.00 in0.0 mm 0.00 in0.0 mm 0.00 in0.0 mm
12:40 AM 19.0°F-7.2°C 13.0°F-10.6°C 77% 2.0 mph S3.2 kmh S 5.0 mph8.0 kmh 30.24 in1024.0 mb 0.00 in0.0 mm 0.00 in0.0 mm 0.00 in0.0 mm
12:39 AM 19.0°F-7.2°C 13.0°F-10.6°C 77% 3.0 mph S4.8 kmh S 5.0 mph8.0 kmh 30.24 in1024.0 mb 0.00 in0.0 mm 0.00 in0.0 mm 0.00 in0.0 mm
12:38 AM 19.0°F-7.2°C 13.0°F-10.6°C 77% 4.0 mph S6.4 kmh S 4.0 mph6.4 kmh 30.24 in1024.0 mb 0.00 in0.0 mm 0.00 in0.0 mm 0.00 in0.0 mm
12:37 AM 19.1°F-7.2°C 13.1°F-10.5°C 77% 3.0 mph S4.8 kmh S 4.0 mph6.4 kmh 30.24 in1024.0 mb 0.00 in0.0 mm 0.00 in0.0 mm 0.00 in0.0 mm
12:36 AM 19.1°F-7.2°C 13.1°F-10.5°C 77% 3.0 mph S4.8 kmh S 5.0 mph8.0 kmh 30.24 in1024.0 mb 0.00 in0.0 mm 0.00 in0.0 mm 0.00 in0.0 mm
12:35 AM 19.1°F-7.2°C 13.1°F-10.5°C 77% 2.0 mph S3.2 kmh S 5.0 mph8.0 kmh 30.24 in1024.0 mb 0.00 in0.0 mm 0.00 in0.0 mm 0.00 in0.0 mm
12:34 AM 19.1°F-7.2°C 13.1°F-10.5°C 77% 3.0 mph S4.8 kmh S 5.0 mph8.0 kmh 30.24 in1024.0 mb 0.00 in0.0 mm 0.00 in0.0 mm 0.00 in0.0 mm
12:33 AM 19.1°F-7.2°C 13.1°F-10.5°C 77% 2.0 mph S3.2 kmh S 5.0 mph8.0 kmh 30.24 in1024.0 mb 0.00 in0.0 mm 0.00 in0.0 mm 0.00 in0.0 mm
12:32 AM 19.1°F-7.2°C 13.1°F-10.5°C 77% 2.0 mph S3.2 kmh S 5.0 mph8.0 kmh 30.24 in1024.0 mb 0.00 in0.0 mm 0.00 in0.0 mm 0.00 in0.0 mm
12:31 AM 19.1°F-7.2°C 13.1°F-10.5°C 77% 2.0 mph S3.2 kmh S 5.0 mph8.0 kmh 30.24 in1024.0 mb 0.00 in0.0 mm 0.00 in0.0 mm 0.00 in0.0 mm
12:30 AM 19.1°F-7.2°C 13.1°F-10.5°C 77% 3.0 mph S4.8 kmh S 5.0 mph8.0 kmh 30.24 in1024.0 mb 0.00 in0.0 mm 0.00 in0.0 mm 0.00 in0.0 mm
12:29 AM 19.1°F-7.2°C 13.1°F-10.5°C 77% 2.0 mph S3.2 kmh S 5.0 mph8.0 kmh 30.24 in1024.0 mb 0.00 in0.0 mm 0.00 in0.0 mm 0.00 in0.0 mm
12:28 AM 19.2°F-7.1°C 13.2°F-10.4°C 77% 3.0 mph S4.8 kmh S 5.0 mph8.0 kmh 30.24 in1024.0 mb 0.00 in0.0 mm 0.00 in0.0 mm 0.00 in0.0 mm
12:27 AM 19.2°F-7.1°C 13.2°F-10.4°C 77% 3.0 mph S4.8 kmh S 5.0 mph8.0 kmh 30.24 in1024.0 mb 0.00 in0.0 mm 0.00 in0.0 mm 0.00 in0.0 mm
12:26 AM 19.3°F-7.1°C 13.3°F-10.4°C 77% 3.0 mph S4.8 kmh S 5.0 mph8.0 kmh 30.24 in1024.0 mb 0.00 in0.0 mm 0.00 in0.0 mm 0.00 in0.0 mm
12:25 AM 19.2°F-7.1°C 13.2°F-10.4°C 77% 3.0 mph S4.8 kmh S 5.0 mph8.0 kmh 30.24 in1024.0 mb 0.00 in0.0 mm 0.00 in0.0 mm 0.00 in0.0 mm
12:24 AM 19.2°F-7.1°C 13.2°F-10.4°C 77% 3.0 mph S4.8 kmh S 5.0 mph8.0 kmh 30.25 in1024.4 mb 0.00 in0.0 mm 0.00 in0.0 mm 0.00 in0.0 mm
12:23 AM 19.2°F-7.1°C 13.2°F-10.4°C 77% 3.0 mph S4.8 kmh S 5.0 mph8.0 kmh 30.25 in1024.4 mb 0.00 in0.0 mm 0.00 in0.0 mm 0.00 in0.0 mm
12:22 AM 19.2°F-7.1°C 13.2°F-10.4°C 77% 3.0 mph S4.8 kmh S 5.0 mph8.0 kmh 30.25 in1024.4 mb 0.00 in0.0 mm 0.00 in0.0 mm 0.00 in0.0 mm
12:21 AM 19.3°F-7.1°C 13.3°F-10.4°C 77% 2.0 mph S3.2 kmh S 6.0 mph9.7 kmh 30.25 in1024.4 mb 0.00 in0.0 mm 0.00 in0.0 mm 0.00 in0.0 mm
12:20 AM 19.3°F-7.1°C 13.3°F-10.4°C 77% 3.0 mph S4.8 kmh S 6.0 mph9.7 kmh 30.25 in1024.4 mb 0.00 in0.0 mm 0.00 in0.0 mm 0.00 in0.0 mm
12:19 AM 19.3°F-7.1°C 13.3°F-10.4°C 77% 3.0 mph S4.8 kmh S 6.0 mph9.7 kmh 30.25 in1024.4 mb 0.00 in0.0 mm 0.00 in0.0 mm 0.00 in0.0 mm
12:18 AM 19.3°F-7.1°C 13.3°F-10.4°C 77% 3.0 mph S4.8 kmh S 6.0 mph9.7 kmh 30.25 in1024.4 mb 0.00 in0.0 mm 0.00 in0.0 mm 0.00 in0.0 mm
12:17 AM 19.3°F-7.1°C 13.3°F-10.4°C 77% 3.0 mph S4.8 kmh S 6.0 mph9.7 kmh 30.25 in1024.4 mb 0.00 in0.0 mm 0.00 in0.0 mm 0.00 in0.0 mm
12:16 AM 19.4°F-7.0°C 13.4°F-10.3°C 77% 1.0 mph S1.6 kmh S 6.0 mph9.7 kmh 30.25 in1024.4 mb 0.00 in0.0 mm 0.00 in0.0 mm 0.00 in0.0 mm
12:15 AM 19.4°F-7.0°C 13.4°F-10.3°C 77% 2.0 mph S3.2 kmh S 6.0 mph9.7 kmh 30.25 in1024.4 mb 0.00 in0.0 mm 0.00 in0.0 mm 0.00 in0.0 mm
12:14 AM 19.4°F-7.0°C 13.4°F-10.3°C 77% 3.0 mph S4.8 kmh S 6.0 mph9.7 kmh 30.25 in1024.4 mb 0.00 in0.0 mm 0.00 in0.0 mm 0.00 in0.0 mm
12:13 AM 19.4°F-7.0°C 13.4°F-10.3°C 77% 3.0 mph S4.8 kmh S 6.0 mph9.7 kmh 30.25 in1024.4 mb 0.00 in0.0 mm 0.00 in0.0 mm 0.00 in0.0 mm
12:12 AM 19.4°F-7.0°C 13.4°F-10.3°C 77% 3.0 mph S4.8 kmh S 6.0 mph9.7 kmh 30.25 in1024.4 mb 0.00 in0.0 mm 0.00 in0.0 mm 0.00 in0.0 mm
12:11 AM 19.5°F-6.9°C 13.5°F-10.3°C 77% 3.0 mph S4.8 kmh S 6.0 mph9.7 kmh 30.24 in1024.0 mb 0.00 in0.0 mm 0.00 in0.0 mm 0.00 in0.0 mm
12:10 AM 19.5°F-6.9°C 13.5°F-10.3°C 77% 4.0 mph S6.4 kmh S 6.0 mph9.7 kmh 30.25 in1024.4 mb 0.00 in0.0 mm 0.00 in0.0 mm 0.00 in0.0 mm
12:09 AM 19.5°F-6.9°C 13.5°F-10.3°C 77% 6.0 mph S9.7 kmh S 6.0 mph9.7 kmh 30.25 in1024.4 mb 0.00 in0.0 mm 0.00 in0.0 mm 0.00 in0.0 mm
12:08 AM 19.5°F-6.9°C 13.5°F-10.3°C 77% 4.0 mph S6.4 kmh S 6.0 mph9.7 kmh 30.25 in1024.4 mb 0.00 in0.0 mm 0.00 in0.0 mm 0.00 in0.0 mm
12:07 AM 19.5°F-6.9°C 13.5°F-10.3°C 77% 4.0 mph S6.4 kmh S 6.0 mph9.7 kmh 30.25 in1024.4 mb 0.00 in0.0 mm 0.00 in0.0 mm 0.00 in0.0 mm
12:06 AM 19.5°F-6.9°C 13.5°F-10.3°C 77% 2.0 mph S3.2 kmh S 6.0 mph9.7 kmh 30.25 in1024.4 mb 0.00 in0.0 mm 0.00 in0.0 mm 0.00 in0.0 mm
12:05 AM 19.6°F-6.9°C 13.6°F-10.2°C 77% 5.0 mph S8.0 kmh S 6.0 mph9.7 kmh 30.25 in1024.4 mb 0.00 in0.0 mm 0.00 in0.0 mm 0.00 in0.0 mm
12:04 AM 19.6°F-6.9°C 13.6°F-10.2°C 77% 5.0 mph S8.0 kmh S 6.0 mph9.7 kmh 30.25 in1024.4 mb 0.00 in0.0 mm 0.00 in0.0 mm 0.00 in0.0 mm
12:03 AM 19.6°F-6.9°C 13.6°F-10.2°C 77% 4.0 mph S6.4 kmh S 6.0 mph9.7 kmh 30.25 in1024.4 mb 0.00 in0.0 mm 0.00 in0.0 mm 0.00 in0.0 mm
12:02 AM 19.6°F-6.9°C 13.6°F-10.2°C 77% 4.0 mph S6.4 kmh S 6.0 mph9.7 kmh 30.25 in1024.4 mb 0.00 in0.0 mm 0.00 in0.0 mm 0.00 in0.0 mm
12:01 AM 19.7°F-6.8°C 13.7°F-10.2°C 77% 4.0 mph S6.4 kmh S 6.0 mph9.7 kmh 30.25 in1024.4 mb 0.00 in0.0 mm 0.00 in0.0 mm 0.00 in0.0 mm
12:00 AM 19.7°F-6.8°C 13.7°F-10.2°C 77% 2.0 mph S3.2 kmh S 6.0 mph9.7 kmh 30.25 in1024.4 mb 0.00 in0.0 mm 0.00 in0.0 mm 0.00 in0.0 mm